Time;durP1;ratioP1;P1;durP2;ratioP2;P2;SDS_P1;SDS_P2;PMS_P1;PMS_P2;Temp;Humidity;BMP_temperature;BMP_pressure;BME280_temperature;BME280_humidity;BME280_pressure;Samples;Min_cycle;Max_cycle;Signal;HPM_P1;HPM_P2
2022/05/18 21:25:07;;;;;;;;;3.00;2.00;;;;;;;;5174637;27;76755;-80
2022/05/18 21:27:33;;;;;;;;;2.00;2.00;;;;;;;;5157490;27;21061;-78
2022/05/18 21:29:58;;;;;;;;;1.00;1.00;;;;;;;;5158402;27;8796;-79
2022/05/18 21:32:23;;;;;;;;;3.00;3.00;;;;;;;;5157276;27;9650;-78
2022/05/18 21:34:49;;;;;;;;;4.75;4.25;;;;;;;;5157507;27;8788;-79
2022/05/18 21:37:14;;;;;;;;;3.75;3.75;;;;;;;;5156954;27;11635;-78
2022/05/18 21:39:39;;;;;;;;;1.25;1.00;;;;;;;;5157870;27;10565;-79
2022/05/18 21:42:06;;;;;;;;;1.50;1.50;;;;;;;;5158474;27;11963;-82
2022/05/18 21:44:31;;;;;;;;;2.00;2.00;;;;;;;;5158207;27;8920;-81
2022/05/18 21:46:59;;;;;;;;;2.00;1.25;;;;;;;;5157423;27;11303;-82
2022/05/18 21:49:25;;;;;;;;;1.00;1.00;;;;;;;;5156206;27;10915;-78
2022/05/18 21:51:51;;;;;;;;;2.00;2.00;;;;;;;;5151849;27;11473;-79
2022/05/18 21:54:17;;;;;;;;;2.25;2.00;;;;;;;;5157285;27;11459;-80
2022/05/18 21:56:48;;;;;;;;;2.75;2.00;;;;;;;;5151266;27;9773;-81
2022/05/18 21:59:20;;;;;;;;;1.75;1.75;;;;;;;;5157547;27;8768;-81
2022/05/18 22:01:45;;;;;;;;;2.00;2.00;;;;;;;;5158048;27;12042;-83
2022/05/18 22:04:11;;;;;;;;;2.00;1.50;;;;;;;;5157190;27;14365;-82
2022/05/18 22:06:37;;;;;;;;;1.00;1.00;;;;;;;;5158717;27;9042;-83
2022/05/18 22:09:02;;;;;;;;;16.50;14.00;;;;;;;;5159268;27;11479;-80
2022/05/18 22:11:28;;;;;;;;;0.00;0.00;;;;;;;;5158372;27;22259;-81
2022/05/18 22:13:58;;;;;;;;;1.50;1.50;;;;;;;;5157668;27;22163;-87
2022/05/18 22:16:24;;;;;;;;;2.00;2.00;;;;;;;;5160044;27;11518;-86
2022/05/18 22:18:50;;;;;;;;;2.00;2.00;;;;;;;;5158861;27;11302;-87
2022/05/18 22:21:15;;;;;;;;;1.50;1.50;;;;;;;;5157978;27;8780;-78
2022/05/18 22:23:41;;;;;;;;;2.00;2.00;;;;;;;;5156301;27;11510;-78
2022/05/18 22:26:06;;;;;;;;;3.00;3.00;;;;;;;;5157574;27;12053;-77
2022/05/18 22:28:36;;;;;;;;;2.00;2.00;;;;;;;;5155538;27;10319;-77
2022/05/18 22:31:02;;;;;;;;;2.00;2.00;;;;;;;;5157412;27;8786;-77
2022/05/18 22:33:28;;;;;;;;;1.00;1.00;;;;;;;;5158102;27;9482;-77
2022/05/18 22:35:53;;;;;;;;;2.00;2.00;;;;;;;;5146919;27;9405;-78
2022/05/18 22:40:53;;;;;;;;;9.00;6.25;;;;;;;;5058518;28;21673;-78
2022/05/18 22:43:22;;;;;;;;;3.00;3.00;;;;;;;;5060381;28;21494;-78
2022/05/18 22:45:47;;;;;;;;;2.25;2.00;;;;;;;;5060923;28;11452;-79
2022/05/18 22:48:13;;;;;;;;;2.00;2.00;;;;;;;;5059911;28;10264;-78
2022/05/18 22:50:48;;;;;;;;;5.00;2.00;;;;;;;;5061164;28;9548;-77
2022/05/18 22:53:15;;;;;;;;;2.00;2.00;;;;;;;;5061154;28;8930;-79
2022/05/18 22:55:40;;;;;;;;;3.00;2.75;;;;;;;;5060556;28;9524;-78
2022/05/18 22:58:05;;;;;;;;;4.50;3.00;;;;;;;;5060652;28;11334;-78
2022/05/18 23:00:31;;;;;;;;;1.50;1.50;;;;;;;;5060743;28;11403;-79
2022/05/18 23:02:59;;;;;;;;;2.75;2.75;;;;;;;;5058400;28;11702;-78
2022/05/18 23:05:25;;;;;;;;;3.00;1.25;;;;;;;;5060310;28;11375;-79
2022/05/18 23:07:50;;;;;;;;;3.00;2.00;;;;;;;;5060465;28;10369;-79
2022/05/18 23:10:17;;;;;;;;;2.00;2.00;;;;;;;;5059988;28;8964;-79
2022/05/18 23:12:43;;;;;;;;;1.50;1.50;;;;;;;;5059621;28;8796;-78
2022/05/18 23:15:08;;;;;;;;;1.00;1.00;;;;;;;;5058774;28;11981;-78
2022/05/18 23:17:35;;;;;;;;;2.00;2.00;;;;;;;;5060281;28;8804;-78
2022/05/18 23:20:01;;;;;;;;;1.25;1.25;;;;;;;;5059816;28;8761;-80
2022/05/18 23:22:26;;;;;;;;;2.00;2.00;;;;;;;;5059776;28;11644;-77
2022/05/18 23:24:51;;;;;;;;;2.00;2.00;;;;;;;;5059520;28;12519;-79
2022/05/18 23:27:16;;;;;;;;;2.00;2.00;;;;;;;;5059516;28;8784;-79
2022/05/18 23:29:42;;;;;;;;;1.75;1.75;;;;;;;;5059584;28;10296;-80
2022/05/18 23:32:10;;;;;;;;;2.00;2.00;;;;;;;;5059554;28;11497;-79
2022/05/18 23:34:39;;;;;;;;;2.00;2.00;;;;;;;;5059385;28;11476;-79
2022/05/18 23:37:17;;;;;;;;;4.50;2.00;;;;;;;;5060179;28;9736;-79
2022/05/18 23:39:42;;;;;;;;;1.25;1.25;;;;;;;;5058833;28;9667;-79
2022/05/18 23:42:08;;;;;;;;;2.00;2.00;;;;;;;;5060138;28;11838;-79
2022/05/18 23:44:33;;;;;;;;;1.50;1.50;;;;;;;;5059744;28;11622;-78
2022/05/18 23:46:58;;;;;;;;;1.50;1.50;;;;;;;;5058788;28;11409;-78
2022/05/18 23:49:25;;;;;;;;;2.00;2.00;;;;;;;;5060298;28;8792;-78
2022/05/18 23:51:50;;;;;;;;;2.75;1.75;;;;;;;;5057812;28;11784;-78
2022/05/18 23:54:16;;;;;;;;;2.00;2.00;;;;;;;;5058985;28;10521;-78
2022/05/18 23:56:41;;;;;;;;;2.00;2.00;;;;;;;;5058943;28;10313;-79
2022/05/18 23:59:18;;;;;;;;;2.00;2.00;;;;;;;;5059188;28;8784;-79
